Time;durP1;ratioP1;P1;durP2;ratioP2;P2;SDS_P1;SDS_P2;PMS_P1;PMS_P2;Temp;Humidity;BMP_temperature;BMP_pressure;BME280_temperature;BME280_humidity;BME280_pressure;Samples;Min_cycle;Max_cycle;Signal;HPM_P1;HPM_P2
2021/05/24 00:00:48;;;;;;;6.25;4.50;;;;;;;8.38;100.00;98576.41;4994399;28;20518;-80
2021/05/24 00:03:14;;;;;;;5.70;4.13;;;;;;;8.25;100.00;98571.41;4995025;28;20022;-82
2021/05/24 00:05:39;;;;;;;6.20;4.57;;;;;;;8.27;100.00;98574.69;4977448;28;20033;-82
2021/05/24 00:08:06;;;;;;;5.10;4.10;;;;;;;8.27;100.00;98564.59;4994781;28;20165;-80
2021/05/24 00:10:35;;;;;;;8.80;4.90;;;;;;;8.38;100.00;98566.31;4996289;28;20034;-81
2021/05/24 00:13:04;;;;;;;7.25;4.50;;;;;;;8.36;100.00;98576.69;4996358;28;20047;-81
2021/05/24 00:15:33;;;;;;;6.00;3.83;;;;;;;8.28;100.00;98560.00;4996752;28;20034;-79
2021/05/24 00:17:59;;;;;;;4.90;3.75;;;;;;;8.31;100.00;98565.75;4996638;28;20025;-82
2021/05/24 00:20:28;;;;;;;5.78;3.95;;;;;;;8.35;100.00;98577.75;4997266;28;20030;-81
2021/05/24 00:22:54;;;;;;;5.32;3.95;;;;;;;8.37;100.00;98561.94;5014183;28;20022;-82
2021/05/24 00:25:20;;;;;;;7.85;4.00;;;;;;;8.24;100.00;98556.16;5014136;28;20037;-82
2021/05/24 00:27:46;;;;;;;6.25;3.63;;;;;;;8.24;100.00;98559.69;5014835;28;20037;-79
2021/05/24 00:30:13;;;;;;;6.90;4.13;;;;;;;8.15;100.00;98547.66;4997087;28;20034;-81
2021/05/24 00:32:39;;;;;;;3.60;3.00;;;;;;;8.25;100.00;98560.50;5014286;28;20026;-82
2021/05/24 00:35:06;;;;;;;5.10;3.85;;;;;;;8.11;100.00;98543.84;4999560;28;20052;-82
2021/05/24 00:37:32;;;;;;;5.05;3.70;;;;;;;8.24;100.00;98543.31;5032057;28;20094;-80
2021/05/24 00:39:57;;;;;;;4.68;3.15;;;;;;;8.35;100.00;98541.50;5016550;28;20069;-80
2021/05/24 00:42:23;;;;;;;5.30;3.30;;;;;;;8.40;100.00;98536.88;5013943;28;20118;-78
2021/05/24 00:44:48;;;;;;;4.40;3.20;;;;;;;8.22;100.00;98542.78;5013542;28;20022;-80
2021/05/24 00:47:14;;;;;;;4.43;3.50;;;;;;;8.24;100.00;98537.88;5013172;28;20014;-82
2021/05/24 00:49:44;;;;;;;5.10;3.42;;;;;;;8.28;100.00;98547.19;5013345;28;20034;-81
2021/05/24 00:52:11;;;;;;;3.67;2.97;;;;;;;8.28;100.00;98544.47;4995860;28;20394;-78
2021/05/24 00:54:36;;;;;;;3.88;3.40;;;;;;;8.28;100.00;98554.53;5012977;28;20128;-80
2021/05/24 00:57:03;;;;;;;4.85;3.28;;;;;;;8.31;100.00;98549.38;5013148;28;20112;-79
2021/05/24 00:59:28;;;;;;;3.58;3.20;;;;;;;8.38;100.00;98546.41;5012266;28;20029;-80
2021/05/24 01:01:54;;;;;;;5.07;3.55;;;;;;;8.38;100.00;98541.78;5012136;28;20083;-79
2021/05/24 01:04:19;;;;;;;5.35;3.33;;;;;;;8.31;100.00;98526.75;5012436;28;20087;-81
2021/05/24 01:06:46;;;;;;;4.38;3.35;;;;;;;8.35;100.00;98527.88;5012979;28;20022;-79
2021/05/24 01:09:12;;;;;;;4.68;3.50;;;;;;;8.32;100.00;98528.41;5012833;28;20032;-80
2021/05/24 01:11:37;;;;;;;4.53;3.05;;;;;;;8.19;100.00;98532.41;5013000;28;20026;-79
2021/05/24 01:14:03;;;;;;;5.00;2.78;;;;;;;8.42;100.00;98534.72;5012732;28;20018;-79
2021/05/24 01:16:30;;;;;;;5.25;2.92;;;;;;;8.55;100.00;98545.13;4994896;28;20033;-78
2021/05/24 01:18:55;;;;;;;5.72;3.92;;;;;;;8.50;100.00;98536.94;5012757;28;20168;-80
2021/05/24 01:21:22;;;;;;;3.63;3.33;;;;;;;8.56;100.00;98535.03;5012658;28;20480;-79
2021/05/24 01:23:48;;;;;;;3.50;2.83;;;;;;;8.57;100.00;98537.50;5012580;28;20029;-81
2021/05/24 01:26:14;;;;;;;5.28;3.13;;;;;;;8.56;100.00;98538.59;5012881;28;20055;-81
2021/05/24 01:28:40;;;;;;;5.30;3.33;;;;;;;8.74;100.00;98544.66;5012740;28;20029;-80
2021/05/24 01:31:07;;;;;;;5.47;3.83;;;;;;;8.69;100.00;98533.72;4995140;28;20562;-80
2021/05/24 01:33:35;;;;;;;4.00;2.95;;;;;;;8.74;100.00;98537.25;5012566;28;20022;-80
2021/05/24 01:36:03;;;;;;;5.90;3.83;;;;;;;8.77;100.00;98514.09;4978601;28;20121;-78
2021/05/24 01:38:34;;;;;;;7.05;4.05;;;;;;;8.66;100.00;98504.25;5012498;28;20115;-82
2021/05/24 01:40:59;;;;;;;4.97;4.10;;;;;;;8.73;100.00;98513.81;5012706;28;20033;-80
2021/05/24 01:43:28;;;;;;;9.85;3.95;;;;;;;8.87;100.00;98508.66;5012760;28;20018;-83
2021/05/24 01:45:54;;;;;;;4.28;3.72;;;;;;;8.72;100.00;98508.63;4995168;28;20026;-82
2021/05/24 01:48:20;;;;;;;5.32;3.35;;;;;;;8.68;100.00;98507.53;5012695;28;20378;-82
2021/05/24 01:50:47;;;;;;;5.53;3.50;;;;;;;8.70;100.00;98519.00;5012811;28;20026;-81
2021/05/24 01:53:13;;;;;;;5.35;4.32;;;;;;;8.78;100.00;98510.28;4994916;28;20033;-83
2021/05/24 01:55:39;;;;;;;5.68;4.10;;;;;;;8.76;100.00;98521.47;5012637;28;20030;-82
2021/05/24 01:58:06;;;;;;;6.30;4.57;;;;;;;8.53;100.00;98508.31;5012535;28;20108;-79
2021/05/24 02:00:32;;;;;;;4.72;3.83;;;;;;;8.46;100.00;98496.81;5011819;28;20410;-75
2021/05/24 02:02:58;;;;;;;7.13;4.78;;;;;;;8.57;100.00;98499.34;5012023;28;20044;-79
2021/05/24 02:05:25;;;;;;;4.63;4.10;;;;;;;8.67;100.00;98495.00;5012100;28;20112;-79
2021/05/24 02:07:52;;;;;;;5.03;3.83;;;;;;;8.59;100.00;98486.25;5011859;28;20034;-80
2021/05/24 02:10:21;;;;;;;4.53;3.95;;;;;;;8.58;100.00;98479.13;5011676;28;20072;-82
2021/05/24 02:12:47;;;;;;;7.30;4.35;;;;;;;8.57;100.00;98482.97;5012766;28;20026;-86
2021/05/24 02:15:18;;;;;;;5.15;4.45;;;;;;;8.80;100.00;98491.75;5011993;28;20077;-84
2021/05/24 02:17:44;;;;;;;5.68;4.18;;;;;;;8.80;100.00;98491.75;5012329;28;20038;-83
2021/05/24 02:20:11;;;;;;;4.82;3.90;;;;;;;8.70;100.00;98486.28;4994900;28;20026;-82
2021/05/24 02:22:37;;;;;;;5.47;4.03;;;;;;;8.91;100.00;98498.84;4994589;28;20034;-85
2021/05/24 02:25:04;;;;;;;5.32;3.92;;;;;;;8.89;100.00;98485.50;5012644;28;20045;-84
2021/05/24 02:27:31;;;;;;;5.45;4.20;;;;;;;8.77;100.00;98497.75;5012048;28;20026;-84
2021/05/24 02:29:56;;;;;;;6.30;4.40;;;;;;;8.74;100.00;98493.63;4995007;28;20478;-80
2021/05/24 02:32:21;;;;;;;10.77;4.55;;;;;;;8.88;100.00;98499.38;5012075;28;20044;-81
2021/05/24 02:34:47;;;;;;;4.90;4.40;;;;;;;8.86;100.00;98493.38;5011974;28;20034;-85
2021/05/24 02:37:12;;;;;;;8.85;4.90;;;;;;;8.71;100.00;98487.91;5012171;28;20395;-84
2021/05/24 02:39:38;;;;;;;6.65;4.97;;;;;;;8.71;100.00;98480.53;5012467;28;20033;-81
2021/05/24 02:42:03;;;;;;;5.47;4.00;;;;;;;8.72;100.00;98479.44;5012273;28;20120;-83
2021/05/24 02:44:29;;;;;;;9.80;4.15;;;;;;;8.67;100.00;98489.53;5012232;28;20053;-82
2021/05/24 02:46:54;;;;;;;7.15;4.05;;;;;;;8.82;100.00;98490.38;5012752;28;20030;-84
2021/05/24 02:49:19;;;;;;;9.20;3.65;;;;;;;8.74;100.00;98484.66;4995706;28;20522;-84
2021/05/24 02:51:45;;;;;;;8.40;5.70;;;;;;;8.67;100.00;98473.19;5016035;28;20454;-82
2021/05/24 02:54:11;;;;;;;11.98;4.90;;;;;;;8.56;100.00;98470.41;5032049;28;20026;-82
2021/05/24 02:56:37;;;;;;;8.60;4.93;;;;;;;8.49;100.00;98479.94;5016885;28;20038;-85
2021/05/24 02:59:03;;;;;;;7.15;4.82;;;;;;;8.48;100.00;98473.69;5012577;28;20030;-83
2021/05/24 03:01:30;;;;;;;7.57;3.80;;;;;;;8.33;100.00;98470.91;4994843;28;20037;-82
2021/05/24 03:03:58;;;;;;;4.10;3.47;;;;;;;8.33;100.00;98468.16;4994504;28;20049;-84
2021/05/24 03:06:23;;;;;;;4.90;3.70;;;;;;;8.34;100.00;98472.53;5012264;28;20510;-84
2021/05/24 03:08:50;;;;;;;6.80;4.28;;;;;;;8.26;100.00;98475.78;5011846;28;20068;-83
2021/05/24 03:11:19;;;;;;;6.65;4.45;;;;;;;8.31;100.00;98467.63;4994622;28;20041;-81
2021/05/24 03:13:45;;;;;;;7.55;5.15;;;;;;;8.26;100.00;98472.22;5012458;28;20056;-85
2021/05/24 03:16:11;;;;;;;11.75;6.60;;;;;;;8.26;100.00;98464.88;5011822;28;20479;-83
2021/05/24 03:18:37;;;;;;;12.80;6.50;;;;;;;8.32;100.00;98458.38;5011833;28;20438;-85
2021/05/24 03:21:03;;;;;;;16.00;6.22;;;;;;;8.38;100.00;98468.19;5011430;28;20034;-82
2021/05/24 03:23:29;;;;;;;8.13;5.55;;;;;;;8.35;100.00;98471.47;5011479;28;20030;-82
2021/05/24 03:25:54;;;;;;;8.02;5.88;;;;;;;8.50;100.00;98479.69;5012657;28;20022;-81
2021/05/24 03:28:20;;;;;;;8.00;5.55;;;;;;;8.48;100.00;98487.31;5015842;28;20382;-83
2021/05/24 03:30:45;;;;;;;5.03;4.22;;;;;;;8.45;100.00;98485.13;5015754;28;20033;-84
2021/05/24 03:33:11;;;;;;;6.88;5.63;;;;;;;8.48;100.00;98490.03;5015360;28;20125;-85
2021/05/24 03:35:36;;;;;;;7.35;4.57;;;;;;;8.49;100.00;98490.84;5015220;28;20041;-84
2021/05/24 03:38:02;;;;;;;9.48;4.75;;;;;;;8.47;100.00;98493.03;4998447;28;20022;-83
2021/05/24 03:40:28;;;;;;;5.97;4.30;;;;;;;8.48;100.00;98490.03;5015616;28;20040;-85
2021/05/24 03:42:53;;;;;;;7.80;5.45;;;;;;;8.41;100.00;98484.03;5015508;28;20022;-83
2021/05/24 03:45:22;;;;;;;9.13;5.72;;;;;;;8.47;100.00;98493.84;5014900;28;20528;-81
2021/05/24 03:47:49;;;;;;;7.80;6.03;;;;;;;8.36;100.00;98489.47;5014917;28;20076;-82
2021/05/24 03:50:15;;;;;;;7.60;5.65;;;;;;;8.58;100.00;98494.72;5014902;28;20029;-81
2021/05/24 03:52:40;;;;;;;6.38;5.30;;;;;;;8.79;100.00;98506.47;4997108;28;20030;-80
2021/05/24 03:55:06;;;;;;;9.88;4.93;;;;;;;8.86;100.00;98501.56;5014987;28;20390;-81
2021/05/24 03:57:32;;;;;;;6.53;4.20;;;;;;;8.90;100.00;98514.38;5014536;28;20026;-82
2021/05/24 03:59:57;;;;;;;6.35;4.03;;;;;;;8.78;100.00;98510.28;4998022;28;20107;-85
2021/05/24 04:02:23;;;;;;;4.65;3.38;;;;;;;8.94;100.00;98520.13;5014767;28;20025;-83
2021/05/24 04:04:49;;;;;;;5.32;3.25;;;;;;;9.01;100.00;98520.69;4997304;28;20502;-82
2021/05/24 04:07:20;;;;;;;5.18;3.40;;;;;;;8.82;100.00;98511.38;5014849;28;20041;-84
2021/05/24 04:09:46;;;;;;;7.28;3.90;;;;;;;8.86;100.00;98520.66;4997611;28;20014;-86
2021/05/24 04:12:12;;;;;;;4.80;3.45;;;;;;;8.55;100.00;98481.63;5015021;28;20022;-84
2021/05/24 04:14:39;;;;;;;6.40;4.25;;;;;;;8.71;100.00;98509.72;5014899;28;20529;-83
2021/05/24 04:17:05;;;;;;;5.97;3.53;;;;;;;8.80;100.00;98521.75;5014941;28;20098;-83
2021/05/24 04:19:30;;;;;;;3.97;3.50;;;;;;;8.83;100.00;98515.75;5014635;28;20108;-82
2021/05/24 04:21:56;;;;;;;4.60;3.67;;;;;;;8.76;100.00;98509.72;5013760;28;20060;-84
2021/05/24 04:24:21;;;;;;;4.05;3.13;;;;;;;8.84;100.00;98509.19;5016996;28;20030;-86
2021/05/24 04:26:47;;;;;;;4.53;3.15;;;;;;;8.73;100.00;98504.81;4999867;28;20065;-87
2021/05/24 04:29:12;;;;;;;5.60;4.68;;;;;;;8.63;100.00;98499.34;5017268;28;20041;-85
2021/05/24 04:31:38;;;;;;;4.50;2.90;;;;;;;8.66;100.00;98506.97;5002253;28;20026;-83
2021/05/24 04:34:06;;;;;;;5.45;3.10;;;;;;;8.58;100.00;98517.31;5014605;28;20029;-87
2021/05/24 04:36:32;;;;;;;4.50;2.83;;;;;;;8.55;100.00;98504.22;5017055;28;20026;-86
2021/05/24 04:38:57;;;;;;;4.07;3.67;;;;;;;8.65;100.00;98502.59;5015530;28;20037;-87
2021/05/24 04:41:23;;;;;;;6.70;4.22;;;;;;;8.64;100.00;98492.81;4999257;28;20470;-87
2021/05/24 04:43:49;;;;;;;6.35;2.85;;;;;;;8.69;100.00;98480.00;5015314;28;20030;-86
2021/05/24 04:46:16;;;;;;;4.45;3.38;;;;;;;8.62;100.00;98465.78;5019808;28;20014;-87
2021/05/24 04:48:41;;;;;;;3.97;3.33;;;;;;;8.86;100.00;98477.03;5000255;28;20549;-86
2021/05/24 04:51:07;;;;;;;4.47;3.50;;;;;;;8.84;100.00;98487.38;5016628;28;20061;-88
2021/05/24 04:53:32;;;;;;;4.30;3.70;;;;;;;8.83;100.00;98494.75;5020460;28;20029;-86
2021/05/24 04:55:58;;;;;;;6.13;4.28;;;;;;;8.93;100.00;98493.91;5027199;28;20504;-87
2021/05/24 04:58:23;;;;;;;6.07;4.30;;;;;;;8.91;100.00;98490.66;5019649;28;20034;-85
2021/05/24 05:00:49;;;;;;;6.63;4.35;;;;;;;8.96;100.00;98490.66;5019168;28;20080;-84
2021/05/24 05:03:15;;;;;;;5.78;4.78;;;;;;;8.92;100.00;98484.94;5002790;28;20088;-88
2021/05/24 05:05:43;;;;;;;5.43;4.65;;;;;;;8.97;100.00;98495.03;5018593;28;20068;-84
2021/05/24 05:08:09;;;;;;;5.63;4.05;;;;;;;9.04;100.00;98501.88;5010710;28;20056;-82
2021/05/24 05:10:35;;;;;;;6.05;4.60;;;;;;;9.13;100.00;98502.13;5036746;28;20679;-80
2021/05/24 05:13:01;;;;;;;6.45;4.95;;;;;;;9.23;100.00;98493.97;5033048;28;20025;-84
2021/05/24 05:15:26;;;;;;;8.05;4.07;;;;;;;9.17;100.00;98486.88;5036763;28;20026;-82
2021/05/24 05:17:52;;;;;;;14.60;4.63;;;;;;;9.21;100.00;98496.13;5027102;28;20475;-80
2021/05/24 05:20:18;;;;;;;5.35;4.80;;;;;;;9.20;100.00;98494.50;5006930;28;20112;-81
2021/05/24 05:22:43;;;;;;;5.95;3.75;;;;;;;9.29;100.00;98508.41;5023434;28;20144;-83
2021/05/24 05:25:13;;;;;;;5.57;4.30;;;;;;;9.60;100.00;98519.03;5022743;28;20080;-84
2021/05/24 05:27:39;;;;;;;7.00;4.18;;;;;;;9.53;100.00;98529.41;5022931;28;20028;-83
2021/05/24 05:30:08;;;;;;;5.50;4.30;;;;;;;9.31;100.00;98531.59;5000923;28;20030;-83
2021/05/24 05:32:37;;;;;;;6.53;4.00;;;;;;;9.36;100.00;98531.63;5024041;28;20025;-83
2021/05/24 05:35:03;;;;;;;5.25;4.35;;;;;;;9.39;100.00;98522.91;5002559;28;20588;-83
2021/05/24 05:37:29;;;;;;;8.85;4.47;;;;;;;9.40;100.00;98535.44;5022242;28;20537;-79
2021/05/24 05:39:56;;;;;;;6.50;3.70;;;;;;;9.51;100.00;98537.09;5013237;28;20054;-84
2021/05/24 05:42:22;;;;;;;5.03;3.97;;;;;;;9.55;100.00;98532.69;5017210;28;20061;-86
2021/05/24 05:44:48;;;;;;;6.70;4.35;;;;;;;9.63;100.00;98534.88;5020032;28;20038;-87
2021/05/24 05:47:14;;;;;;;9.43;4.38;;;;;;;9.51;100.00;98526.16;5019641;28;20036;-84
2021/05/24 05:49:40;;;;;;;3.80;3.25;;;;;;;9.35;100.00;98510.88;5018208;28;20454;-84
2021/05/24 05:52:06;;;;;;;6.35;3.55;;;;;;;9.47;100.00;98519.59;5017987;28;20022;-84
2021/05/24 05:54:31;;;;;;;4.72;2.78;;;;;;;9.56;100.00;98533.50;5022450;28;20390;-86
2021/05/24 05:56:57;;;;;;;3.33;2.75;;;;;;;9.47;100.00;98533.25;5024389;28;20037;-86
2021/05/24 05:59:23;;;;;;;2.35;2.00;;;;;;;9.56;100.00;98534.34;5004754;28;20061;-86
2021/05/24 06:01:48;;;;;;;3.55;2.63;;;;;;;9.68;100.00;98521.22;5002744;28;20734;-84
2021/05/24 06:04:14;;;;;;;3.28;2.47;;;;;;;9.88;100.00;98535.94;5023236;28;20046;-86
2021/05/24 06:06:39;;;;;;;4.32;1.95;;;;;;;9.94;99.43;98535.66;5006917;28;20413;-87
2021/05/24 06:09:05;;;;;;;5.63;2.50;;;;;;;9.78;99.91;98530.47;5021292;28;20034;-87
2021/05/24 06:11:30;;;;;;;2.42;2.17;;;;;;;9.66;99.46;98528.03;5024075;28;20089;-83
2021/05/24 06:13:56;;;;;;;2.78;1.50;;;;;;;9.79;99.29;98543.88;5021582;28;20032;-81
2021/05/24 06:16:21;;;;;;;5.03;3.35;;;;;;;9.80;99.09;98545.53;5026768;28;20031;-79
2021/05/24 06:18:47;;;;;;;4.22;2.15;;;;;;;9.95;98.84;98526.38;5023074;28;20394;-83
2021/05/24 06:21:12;;;;;;;6.85;2.70;;;;;;;10.10;97.62;98550.09;5020071;28;20441;-81
2021/05/24 06:23:38;;;;;;;4.00;2.95;;;;;;;9.92;98.24;98547.94;5020529;28;20432;-82
2021/05/24 06:26:04;;;;;;;3.90;2.40;;;;;;;9.91;98.83;98541.66;5021334;28;20050;-82
2021/05/24 06:28:29;;;;;;;4.00;2.20;;;;;;;9.65;99.55;98521.75;5020465;28;20861;-81
2021/05/24 06:30:55;;;;;;;3.03;2.40;;;;;;;9.73;100.00;98533.22;5005156;28;20489;-80
2021/05/24 06:33:20;;;;;;;5.13;2.63;;;;;;;9.52;100.00;98537.91;5019154;28;20029;-81
2021/05/24 06:35:46;;;;;;;5.85;3.13;;;;;;;9.42;100.00;98527.81;5003828;28;20022;-83
2021/05/24 06:38:11;;;;;;;4.10;2.67;;;;;;;9.69;100.00;98544.72;5021780;28;20117;-87
2021/05/24 06:40:37;;;;;;;4.88;2.83;;;;;;;9.92;100.00;98545.22;5019973;28;20039;-74
2021/05/24 06:43:05;;;;;;;2.67;2.38;;;;;;;9.75;100.00;98537.31;5020305;28;20021;-77
2021/05/24 06:45:30;;;;;;;3.08;2.53;;;;;;;9.62;100.00;98525.03;5020688;28;20025;-75
2021/05/24 06:47:56;;;;;;;3.13;2.72;;;;;;;9.53;100.00;98496.66;5015527;28;20026;-75
2021/05/24 06:50:21;;;;;;;3.00;2.58;;;;;;;9.74;100.00;98504.81;5011276;28;20044;-86
2021/05/24 06:52:46;;;;;;;3.55;2.03;;;;;;;9.68;100.00;98514.91;5014337;28;20034;-86
2021/05/24 06:55:12;;;;;;;3.63;2.50;;;;;;;9.56;100.00;98501.56;5012270;28;20034;-86
2021/05/24 06:57:38;;;;;;;6.13;2.08;;;;;;;9.54;100.00;98502.94;4995981;28;20045;-84
2021/05/24 07:00:07;;;;;;;3.92;2.95;;;;;;;9.53;100.00;98498.56;5012915;28;20022;-83
2021/05/24 07:02:32;;;;;;;5.70;3.58;;;;;;;9.35;100.00;98486.31;5016785;28;20367;-85
2021/05/24 07:04:57;;;;;;;3.40;2.58;;;;;;;9.34;100.00;98486.56;5016700;28;20069;-84
2021/05/24 07:07:23;;;;;;;4.72;2.97;;;;;;;9.37;100.00;98477.81;5016729;28;20018;-85
2021/05/24 07:09:48;;;;;;;3.47;2.70;;;;;;;9.31;100.00;98479.75;4999812;28;20129;-86
2021/05/24 07:12:13;;;;;;;9.85;3.35;;;;;;;9.34;100.00;98476.47;5017000;28;20030;-87
2021/05/24 07:14:42;;;;;;;6.20;3.25;;;;;;;9.20;100.00;98478.13;5016846;28;20476;-83
2021/05/24 07:17:07;;;;;;;4.78;2.97;;;;;;;9.19;100.00;98478.38;5016762;28;20032;-84
2021/05/24 07:19:33;;;;;;;6.03;3.45;;;;;;;9.21;100.00;98465.31;5017533;28;20113;-84
2021/05/24 07:22:01;;;;;;;3.67;2.85;;;;;;;9.24;100.00;98449.16;4998971;28;20030;-84
2021/05/24 07:24:27;;;;;;;8.82;3.13;;;;;;;9.62;100.00;98456.75;4999071;28;20474;-85
2021/05/24 07:26:54;;;;;;;5.68;3.67;;;;;;;9.82;100.00;98457.81;5016018;28;20490;-84
2021/05/24 07:29:20;;;;;;;7.45;4.28;;;;;;;9.88;100.00;98454.78;5016050;28;20022;-85
2021/05/24 07:31:45;;;;;;;9.40;4.53;;;;;;;10.10;100.00;98465.34;5016351;28;20022;-87
2021/05/24 07:34:11;;;;;;;9.13;4.90;;;;;;;10.11;100.00;98470.56;5017606;28;20021;-84
2021/05/24 07:36:36;;;;;;;5.10;3.55;;;;;;;10.18;100.00;98464.78;5016402;28;20022;-85
2021/05/24 07:39:03;;;;;;;6.40;3.78;;;;;;;9.97;100.00;98463.22;5016863;28;20136;-84
2021/05/24 07:41:28;;;;;;;6.13;3.92;;;;;;;9.95;100.00;98455.31;5017110;28;20032;-84
2021/05/24 07:43:54;;;;;;;7.05;5.00;;;;;;;10.12;100.00;98460.41;5017889;28;20113;-86
2021/05/24 07:46:19;;;;;;;8.02;4.28;;;;;;;10.22;100.00;98449.47;5017430;28;20060;-85
2021/05/24 07:48:45;;;;;;;6.95;3.83;;;;;;;10.20;100.00;98463.44;5017704;28;20029;-87
2021/05/24 07:51:10;;;;;;;8.80;4.75;;;;;;;10.03;100.00;98448.44;4999877;28;20033;-84
2021/05/24 07:53:35;;;;;;;7.32;4.32;;;;;;;10.04;100.00;98459.09;5015860;28;20454;-83
2021/05/24 07:56:01;;;;;;;6.60;4.35;;;;;;;9.96;100.00;98458.88;4998749;28;20096;-87
2021/05/24 07:58:26;;;;;;;3.50;3.15;;;;;;;10.04;100.00;98466.47;5017159;28;20018;-84
2021/05/24 08:00:52;;;;;;;4.00;3.28;;;;;;;10.03;100.00;98454.72;4998878;28;20030;-84
2021/05/24 08:03:17;;;;;;;3.67;3.13;;;;;;;10.09;100.00;98466.44;4999182;28;20450;-84
2021/05/24 08:05:43;;;;;;;3.58;2.95;;;;;;;10.03;100.00;98464.84;5016166;28;20597;-84
2021/05/24 08:08:08;;;;;;;2.97;2.55;;;;;;;10.00;100.00;98457.19;5015565;28;20035;-82
2021/05/24 08:10:34;;;;;;;7.20;2.95;;;;;;;10.08;100.00;98468.38;5015734;28;20381;-83
2021/05/24 08:12:59;;;;;;;3.95;3.15;;;;;;;10.14;100.00;98483.69;5014599;28;20044;-86
2021/05/24 08:15:32;;;;;;;4.28;2.63;;;;;;;10.18;100.00;98484.75;5015208;28;20034;-85
2021/05/24 08:18:01;;;;;;;2.33;1.75;;;;;;;10.07;100.00;98501.44;5016569;28;20065;-87
2021/05/24 08:20:28;;;;;;;3.03;2.00;;;;;;;10.12;100.00;98502.25;4998086;28;20125;-85
2021/05/24 08:22:53;;;;;;;2.65;1.95;;;;;;;10.11;100.00;98502.53;5015715;28;20022;-85
2021/05/24 08:25:19;;;;;;;9.00;2.63;;;;;;;10.23;100.00;98510.44;5006225;28;20022;-83
2021/05/24 08:27:46;;;;;;;4.32;2.22;;;;;;;10.20;100.00;98503.63;4999810;28;20443;-87
2021/05/24 08:30:12;;;;;;;7.03;3.17;;;;;;;10.19;100.00;98489.13;5015774;28;20030;-83
2021/05/24 08:32:38;;;;;;;3.25;2.80;;;;;;;10.12;100.00;98460.41;5019955;28;20167;-85
2021/05/24 08:35:06;;;;;;;5.88;4.07;;;;;;;10.03;100.00;98443.78;5025751;28;20113;-87
2021/05/24 08:37:31;;;;;;;5.72;3.75;;;;;;;10.00;100.00;98410.72;5014871;28;20037;-86
2021/05/24 08:39:56;;;;;;;4.32;3.17;;;;;;;9.99;100.00;98409.13;4997480;28;20394;-85
2021/05/24 08:42:25;;;;;;;5.53;3.78;;;;;;;10.32;100.00;98429.47;4998082;28;20462;-83
2021/05/24 08:44:50;;;;;;;5.60;4.05;;;;;;;10.43;100.00;98429.13;5016831;28;20120;-86
2021/05/24 08:47:18;;;;;;;4.10;3.65;;;;;;;10.75;100.00;98459.56;5031947;28;20096;-85
2021/05/24 08:49:44;;;;;;;5.78;4.18;;;;;;;10.81;100.00;98468.53;5034468;28;20030;-85
2021/05/24 08:52:09;;;;;;;4.32;3.50;;;;;;;10.77;100.00;98461.22;5034211;28;20055;-85
2021/05/24 08:54:37;;;;;;;4.22;3.38;;;;;;;10.84;100.00;98475.41;5016762;28;20041;-84
2021/05/24 08:57:04;;;;;;;4.15;3.28;;;;;;;10.62;100.00;98462.94;5033610;28;20033;-83
2021/05/24 08:59:30;;;;;;;9.23;3.70;;;;;;;10.54;100.00;98441.66;5015605;28;20033;-81
2021/05/24 09:01:55;;;;;;;7.53;2.95;;;;;;;10.49;100.00;98438.97;5034118;28;20033;-83
2021/05/24 09:04:21;;;;;;;4.47;3.15;;;;;;;10.50;100.00;98440.56;5033812;28;20049;-87
2021/05/24 09:06:49;;;;;;;5.20;3.03;;;;;;;10.30;100.00;98431.69;5034255;28;20079;-84
2021/05/24 09:09:18;;;;;;;3.78;3.17;;;;;;;10.29;100.00;98432.78;5015996;28;20029;-87
2021/05/24 09:11:45;;;;;;;5.13;3.55;;;;;;;10.37;100.00;98430.25;5033882;28;20025;-84
2021/05/24 09:14:12;;;;;;;7.90;3.88;;;;;;;10.23;100.00;98418.31;5017463;28;20394;-84
2021/05/24 09:16:38;;;;;;;5.20;3.78;;;;;;;10.30;100.00;98431.69;5036057;28;20083;-83
2021/05/24 09:19:17;;;;;;;4.10;3.67;;;;;;;10.37;100.00;98435.72;5018001;28;20425;-85
2021/05/24 09:21:49;;;;;;;6.25;3.58;;;;;;;10.27;100.00;98430.34;5035891;28;20029;-86
2021/05/24 09:24:21;;;;;;;4.97;3.47;;;;;;;10.19;100.00;98419.97;5034268;28;20083;-86
2021/05/24 09:26:47;;;;;;;4.28;3.10;;;;;;;10.10;100.00;98391.56;5034788;28;20037;-89
2021/05/24 09:29:13;;;;;;;5.97;3.65;;;;;;;10.25;100.00;98398.88;5015501;28;20025;-84
2021/05/24 09:31:39;;;;;;;5.22;2.97;;;;;;;10.42;100.00;98400.16;5014497;28;20022;-88
2021/05/24 09:34:07;;;;;;;8.73;3.60;;;;;;;10.41;100.00;98386.75;5015278;28;20390;-86
2021/05/24 09:36:34;;;;;;;3.33;2.63;;;;;;;10.26;100.00;98395.06;5013559;28;20065;-86
2021/05/24 09:39:03;;;;;;;4.70;3.10;;;;;;;10.20;100.00;98407.94;5014223;28;20030;-86
2021/05/24 09:41:38;;;;;;;5.35;3.08;;;;;;;10.43;100.00;98429.13;5014716;28;20029;-85
2021/05/24 09:44:05;;;;;;;5.25;2.60;;;;;;;10.47;100.00;98419.25;4980991;28;20034;-84
2021/05/24 09:46:30;;;;;;;3.85;3.03;;;;;;;10.53;100.00;98409.91;5015333;28;20498;-86
2021/05/24 09:49:03;;;;;;;7.63;3.90;;;;;;;10.73;100.00;98418.00;5013713;28;20038;-88
2021/05/24 09:51:31;;;;;;;5.60;3.65;;;;;;;10.79;100.00;98417.94;4996798;28;20022;-85
2021/05/24 09:54:06;;;;;;;4.70;3.63;;;;;;;10.98;100.00;98413.44;5014343;28;20026;-87
2021/05/24 09:56:36;;;;;;;8.63;4.65;;;;;;;10.78;100.00;98381.56;4997374;28;20409;-86
2021/05/24 09:59:05;;;;;;;5.70;2.40;;;;;;;10.56;100.00;98348.34;5016300;28;20037;-86
2021/05/24 10:01:37;;;;;;;5.45;2.67;;;;;;;10.39;100.00;98331.53;5003575;28;20028;-85
2021/05/24 10:04:05;;;;;;;3.17;2.25;;;;;;;10.22;100.00;98290.91;5021989;28;20113;-84
2021/05/24 10:06:31;;;;;;;5.20;2.70;;;;;;;10.14;100.00;98261.47;5023198;28;20022;-85
2021/05/24 10:08:56;;;;;;;6.85;2.60;;;;;;;10.21;100.00;98232.69;5025165;28;20113;-85
2021/05/24 10:11:24;;;;;;;3.92;2.72;;;;;;;10.40;100.00;98230.06;5025220;28;20025;-86
2021/05/24 10:13:50;;;;;;;5.57;3.00;;;;;;;10.54;100.00;98244.72;5008113;28;20034;-85
2021/05/24 10:16:17;;;;;;;4.63;3.30;;;;;;;10.53;100.00;98247.72;5027211;28;20029;-85
2021/05/24 10:18:42;;;;;;;3.75;2.60;;;;;;;10.41;100.00;98250.03;5017876;28;20034;-84
2021/05/24 10:21:08;;;;;;;2.95;2.30;;;;;;;10.56;100.00;98263.56;5003111;28;20022;-85
2021/05/24 10:23:34;;;;;;;2.85;2.58;;;;;;;10.48;100.00;98258.72;5027997;28;20030;-86
2021/05/24 10:26:02;;;;;;;3.25;2.83;;;;;;;10.50;100.00;98260.06;5027200;28;20046;-84
2021/05/24 10:28:28;;;;;;;8.65;2.55;;;;;;;10.60;100.00;98253.69;5003870;28;20078;-86
2021/05/24 10:30:56;;;;;;;5.75;2.83;;;;;;;10.59;100.00;98258.34;5027549;28;20059;-87
2021/05/24 10:33:26;;;;;;;2.97;1.90;;;;;;;10.61;100.00;98260.81;5021804;28;20033;-90
2021/05/24 10:35:54;;;;;;;3.95;2.22;;;;;;;10.65;100.00;98268.13;5021485;28;20036;-84
2021/05/24 10:38:35;;;;;;;3.60;2.20;;;;;;;10.59;100.00;98263.81;5000088;28;20473;-84
2021/05/24 10:41:12;;;;;;;2.83;2.20;;;;;;;10.35;100.00;98254.72;5022276;28;20018;-86
2021/05/24 10:43:39;;;;;;;2.40;2.05;;;;;;;10.38;100.00;98267.84;5025367;28;20116;-84
2021/05/24 10:46:23;;;;;;;2.70;2.13;;;;;;;10.48;100.00;98267.75;4991392;28;20026;-85
2021/05/24 10:49:02;;;;;;;3.65;2.50;;;;;;;10.34;100.00;98274.97;5025864;28;20049;-84
2021/05/24 10:51:46;;;;;;;2.92;2.13;;;;;;;10.55;100.00;98292.84;5008029;28;20029;-84
2021/05/24 10:54:22;;;;;;;3.38;2.55;;;;;;;10.59;100.00;98272.00;5002606;28;20034;-83
2021/05/24 10:57:14;;;;;;;7.22;3.10;;;;;;;10.71;100.00;98250.56;5022523;28;20041;-87
2021/05/24 10:59:43;;;;;;;7.25;3.25;;;;;;;10.87;100.00;98247.69;5001527;28;20042;-83
2021/05/24 11:02:30;;;;;;;4.53;3.05;;;;;;;10.91;100.00;98243.25;5007085;28;20022;-85
2021/05/24 11:05:08;;;;;;;4.25;2.72;;;;;;;11.08;100.00;98249.09;5012068;28;20054;-83
2021/05/24 11:07:47;;;;;;;2.25;2.05;;;;;;;11.11;100.00;98248.50;5019977;28;20069;-83
2021/05/24 11:10:12;;;;;;;2.28;1.90;;;;;;;11.07;100.00;98239.22;5014495;28;20844;-84
2021/05/24 11:12:39;;;;;;;3.38;3.08;;;;;;;11.02;100.00;98245.59;5016727;28;20022;-83
2021/05/24 11:15:06;;;;;;;3.50;2.55;;;;;;;10.92;100.00;98250.34;5007402;28;20032;-83
2021/05/24 11:18:02;;;;;;;4.30;2.95;;;;;;;11.04;100.00;98250.78;5021239;28;20033;-83
2021/05/24 11:21:05;;;;;;;4.50;2.35;;;;;;;10.98;100.00;98271.09;5024327;28;20037;-81
2021/05/24 11:24:23;;;;;;;5.97;2.47;;;;;;;10.96;100.00;98230.34;5030753;28;20068;-84
2021/05/24 11:26:33;;;;;;;6.68;2.40;;;;;;;10.92;100.00;98220.25;5017206;28;20041;-82
2021/05/24 11:29:17;;;;;;;2.40;1.85;;;;;;;11.12;100.00;98239.19;5031279;28;20026;-83
2021/05/24 11:31:56;;;;;;;3.97;2.65;;;;;;;11.26;100.00;98243.66;5001811;28;20120;-84